Time;durP1;ratioP1;P1;durP2;ratioP2;P2;SDS_P1;SDS_P2;PMS_P1;PMS_P2;Temp;Humidity;BMP_temperature;BMP_pressure;BME280_temperature;BME280_humidity;BME280_pressure;Samples;Min_cycle;Max_cycle;Signal;HPM_P1;HPM_P2
2021/01/26 00:01:24;;;;;;;20.40;11.97;;;0.70;99.90;;;;;;4922940;29;20951;-89
2021/01/26 00:03:50;;;;;;;16.63;9.70;;;0.70;99.90;;;;;;4930122;29;20476;-86
2021/01/26 00:06:15;;;;;;;26.23;13.83;;;0.70;99.90;;;;;;4923426;29;20225;-86
2021/01/26 00:08:41;;;;;;;23.53;12.70;;;0.70;99.90;;;;;;4928616;29;20227;-86
2021/01/26 00:11:07;;;;;;;24.63;13.33;;;0.70;99.90;;;;;;4920965;29;20210;-87
2021/01/26 00:13:34;;;;;;;26.90;12.77;;;0.80;99.90;;;;;;4932924;29;20217;-87
2021/01/26 00:15:59;;;;;;;17.87;10.57;;;0.80;99.90;;;;;;4925396;29;20465;-87
2021/01/26 00:18:25;;;;;;;26.13;14.30;;;0.80;99.90;;;;;;4930465;29;20629;-87
2021/01/26 00:20:51;;;;;;;26.33;13.53;;;0.80;99.90;;;;;;4928948;29;20202;-86
2021/01/26 00:23:17;;;;;;;22.07;10.87;;;0.80;99.90;;;;;;4925813;29;20845;-87
2021/01/26 00:25:43;;;;;;;24.80;13.70;;;0.70;99.90;;;;;;4924890;29;20472;-86
2021/01/26 00:28:11;;;;;;;21.33;13.00;;;0.70;99.90;;;;;;4925111;29;20492;-87
2021/01/26 00:30:38;;;;;;;20.47;11.50;;;0.70;99.90;;;;;;4927992;29;20459;-86
2021/01/26 00:33:10;;;;;;;26.63;13.33;;;0.70;99.90;;;;;;4923256;29;20458;-85
2021/01/26 00:35:35;;;;;;;28.37;13.67;;;0.70;99.90;;;;;;4928919;29;20462;-84
2021/01/26 00:38:02;;;;;;;28.20;15.53;;;0.70;99.90;;;;;;4922189;29;20452;-87
2021/01/26 00:40:28;;;;;;;20.90;10.67;;;0.80;99.90;;;;;;4928267;29;20255;-87
2021/01/26 00:42:54;;;;;;;23.80;13.63;;;0.80;99.90;;;;;;4919477;29;20985;-87
2021/01/26 00:45:22;;;;;;;29.90;14.77;;;0.80;99.90;;;;;;4924160;29;20524;-87
2021/01/26 00:47:48;;;;;;;26.63;14.13;;;0.70;99.90;;;;;;4923216;29;20451;-87
2021/01/26 00:50:15;;;;;;;29.10;14.10;;;0.70;99.90;;;;;;4923058;29;20453;-86
2021/01/26 00:52:40;;;;;;;22.90;12.20;;;0.70;99.90;;;;;;4919770;29;20245;-85
2021/01/26 00:55:08;;;;;;;21.70;11.73;;;0.70;99.90;;;;;;4920002;29;20879;-83
2021/01/26 00:57:35;;;;;;;23.90;12.27;;;0.70;99.90;;;;;;4919201;29;20253;-84
2021/01/26 01:00:00;;;;;;;24.20;14.40;;;0.70;99.90;;;;;;4920283;29;20446;-85
2021/01/26 01:02:26;;;;;;;27.13;13.13;;;0.70;99.90;;;;;;4920181;29;21037;-85
2021/01/26 01:04:52;;;;;;;27.00;12.80;;;0.70;99.90;;;;;;4917068;29;20642;-87
2021/01/26 01:07:18;;;;;;;30.93;16.00;;;0.80;99.90;;;;;;4924231;29;20493;-86
2021/01/26 01:09:46;;;;;;;21.27;12.77;;;0.80;99.90;;;;;;4915625;29;20195;-86
2021/01/26 01:12:12;;;;;;;29.83;12.97;;;0.70;99.90;;;;;;4926490;29;20195;-86
2021/01/26 01:14:39;;;;;;;20.47;11.10;;;0.80;99.90;;;;;;4919074;29;20470;-86
2021/01/26 01:17:05;;;;;;;18.30;12.10;;;0.80;99.90;;;;;;4919075;29;20774;-87
2021/01/26 01:19:30;;;;;;;31.70;11.50;;;0.80;99.90;;;;;;4912260;29;20439;-86
2021/01/26 01:21:56;;;;;;;28.93;14.20;;;0.90;99.90;;;;;;4924005;29;20213;-85
2021/01/26 01:24:22;;;;;;;25.33;12.77;;;0.90;99.90;;;;;;4916993;29;20223;-86
2021/01/26 01:26:47;;;;;;;16.93;10.20;;;0.90;99.90;;;;;;4920719;29;20245;-86
2021/01/26 01:29:14;;;;;;;19.73;9.77;;;0.90;99.90;;;;;;4923567;29;20192;-87
2021/01/26 01:31:39;;;;;;;16.30;10.13;;;0.90;99.90;;;;;;4924092;29;20212;-87
2021/01/26 01:34:08;;;;;;;27.80;13.63;;;0.80;99.90;;;;;;4919316;29;20503;-87
2021/01/26 01:36:38;;;;;;;20.47;9.03;;;0.90;99.90;;;;;;4914896;29;20214;-84
2021/01/26 01:39:08;;;;;;;21.17;9.90;;;1.00;99.90;;;;;;4918957;29;20476;-85
2021/01/26 01:41:37;;;;;;;22.13;13.13;;;1.00;99.90;;;;;;4917069;29;20813;-84
2021/01/26 01:44:04;;;;;;;25.90;12.50;;;0.90;99.90;;;;;;4924334;29;20659;-86
2021/01/26 01:46:34;;;;;;;21.00;11.17;;;0.90;99.90;;;;;;4916306;29;20497;-84
2021/01/26 01:49:03;;;;;;;22.17;10.97;;;0.90;99.90;;;;;;4922551;29;20434;-85
2021/01/26 01:51:29;;;;;;;20.93;7.90;;;0.90;99.90;;;;;;4916571;29;21072;-85
2021/01/26 01:54:09;;;;;;;25.53;13.10;;;0.90;99.90;;;;;;4921891;29;20463;-85
2021/01/26 01:56:51;;;;;;;23.73;11.93;;;0.90;99.90;;;;;;4916119;29;20940;-86
2021/01/26 01:59:24;;;;;;;20.80;11.97;;;0.90;99.90;;;;;;4918844;29;20537;-86
2021/01/26 02:01:51;;;;;;;23.30;12.70;;;0.80;99.90;;;;;;4921235;29;20525;-85
2021/01/26 02:04:19;;;;;;;17.10;9.53;;;0.80;99.90;;;;;;4918951;29;20467;-87
2021/01/26 02:06:50;;;;;;;16.83;9.67;;;0.80;99.90;;;;;;4922614;29;20535;-85
2021/01/26 02:09:28;;;;;;;26.80;12.20;;;0.80;99.90;;;;;;4918068;29;20469;-85
2021/01/26 02:11:55;;;;;;;21.90;11.57;;;0.70;99.90;;;;;;4932888;29;20430;-84
2021/01/26 02:14:21;;;;;;;25.90;12.67;;;0.70;99.90;;;;;;4914727;29;21767;-83
2021/01/26 02:17:11;;;;;;;27.60;11.73;;;0.70;99.90;;;;;;4917189;29;20487;-85
2021/01/26 02:19:58;;;;;;;18.27;9.73;;;0.70;99.90;;;;;;4919651;29;20442;-86
2021/01/26 02:22:38;;;;;;;21.03;11.77;;;0.70;99.90;;;;;;4916580;29;20493;-85
2021/01/26 02:25:25;;;;;;;25.93;12.60;;;0.70;99.90;;;;;;4920078;29;20486;-83
2021/01/26 02:27:53;;;;;;;25.53;12.07;;;0.70;99.90;;;;;;4909496;29;20947;-84
2021/01/26 02:30:26;;;;;;;14.97;9.27;;;0.70;99.90;;;;;;4918185;29;20804;-85
2021/01/26 02:32:57;;;;;;;17.27;10.07;;;0.70;99.90;;;;;;4918113;29;20439;-86
2021/01/26 02:35:41;;;;;;;21.50;12.67;;;0.70;99.90;;;;;;4918723;29;20456;-86
2021/01/26 02:38:50;;;;;;;18.83;10.70;;;0.70;99.90;;;;;;4918090;29;20439;-84
2021/01/26 02:41:22;;;;;;;19.50;10.20;;;0.80;99.90;;;;;;4917615;29;20462;-85
2021/01/26 02:44:03;;;;;;;23.27;10.60;;;0.80;99.90;;;;;;4919767;29;20552;-86
2021/01/26 02:46:45;;;;;;;19.10;9.50;;;0.80;99.90;;;;;;4915871;29;20504;-85
2021/01/26 02:49:21;;;;;;;23.70;12.23;;;0.90;99.90;;;;;;4918272;29;20969;-85
2021/01/26 02:52:17;;;;;;;16.53;9.80;;;1.00;99.90;;;;;;4918579;29;20431;-86
2021/01/26 02:54:45;;;;;;;11.63;6.70;;;1.00;99.90;;;;;;4903785;29;20479;-86
2021/01/26 02:57:17;;;;;;;15.90;10.60;;;1.10;99.90;;;;;;4917249;29;20809;-83
2021/01/26 03:00:08;;;;;;;22.93;11.40;;;1.20;99.90;;;;;;4913835;29;20440;-84
2021/01/26 03:02:38;;;;;;;17.60;8.40;;;1.20;99.90;;;;;;4909897;29;20460;-83
2021/01/26 03:05:27;;;;;;;20.13;9.43;;;1.20;99.90;;;;;;4915783;29;20471;-86
2021/01/26 03:08:03;;;;;;;21.83;9.67;;;1.20;99.90;;;;;;4909411;29;20456;-86
2021/01/26 03:10:36;;;;;;;17.57;8.60;;;1.20;99.90;;;;;;4919420;29;20439;-85
2021/01/26 03:13:06;;;;;;;20.20;8.70;;;1.30;99.90;;;;;;4912284;29;20506;-84
2021/01/26 03:15:41;;;;;;;18.53;9.90;;;1.30;99.90;;;;;;4917760;29;20471;-84
2021/01/26 03:18:11;;;;;;;13.67;8.20;;;1.30;99.90;;;;;;4911370;29;20463;-84
2021/01/26 03:20:40;;;;;;;21.40;10.60;;;1.40;99.90;;;;;;4898054;29;20989;-82
2021/01/26 03:23:15;;;;;;;16.03;8.97;;;1.30;99.90;;;;;;4915165;29;20459;-85
2021/01/26 03:25:46;;;;;;;15.70;8.20;;;1.40;99.90;;;;;;4911798;29;20482;-87
2021/01/26 03:28:13;;;;;;;11.87;5.90;;;1.40;99.90;;;;;;4916027;29;20443;-86
2021/01/26 03:30:42;;;;;;;16.43;9.87;;;1.40;99.90;;;;;;4913244;29;20453;-84
2021/01/26 03:33:31;;;;;;;15.37;9.43;;;1.40;99.90;;;;;;4914033;29;20452;-84
2021/01/26 03:35:57;;;;;;;14.03;8.57;;;1.50;99.90;;;;;;4923704;29;20848;-85
2021/01/26 03:38:27;;;;;;;13.10;8.07;;;1.50;99.90;;;;;;4913707;29;20765;-82
2021/01/26 03:40:54;;;;;;;14.53;8.63;;;1.50;99.90;;;;;;4914199;29;20882;-83
2021/01/26 03:43:21;;;;;;;17.43;9.17;;;1.50;99.90;;;;;;4894191;29;20472;-83
2021/01/26 03:46:25;;;;;;;14.80;8.07;;;1.50;99.90;;;;;;4914685;29;20486;-86
2021/01/26 03:49:14;;;;;;;13.33;7.93;;;1.60;99.90;;;;;;4884803;29;20818;-84
2021/01/26 03:52:09;;;;;;;9.27;7.80;;;1.60;99.90;;;;;;4916823;29;20895;-85
2021/01/26 03:54:53;;;;;;;13.20;6.03;;;1.60;99.90;;;;;;4912472;29;20497;-83
2021/01/26 03:57:19;;;;;;;13.33;7.60;;;1.60;99.90;;;;;;4912442;29;21001;-85
2021/01/26 04:00:00;;;;;;;12.77;7.70;;;1.60;99.90;;;;;;4908959;29;20434;-85
2021/01/26 04:02:53;;;;;;;7.40;5.20;;;1.70;99.90;;;;;;4914804;29;20453;-85
2021/01/26 04:05:48;;;;;;;6.70;3.93;;;1.70;99.90;;;;;;4916248;29;20520;-85
2021/01/26 04:08:21;;;;;;;11.03;5.17;;;1.70;99.90;;;;;;4907306;29;20432;-84
2021/01/26 04:11:00;;;;;;;10.17;3.53;;;1.70;99.90;;;;;;4915990;29;20476;-84
2021/01/26 04:13:33;;;;;;;9.17;6.20;;;1.70;99.90;;;;;;4926807;29;20466;-86
2021/01/26 04:16:01;;;;;;;6.17;4.50;;;1.70;99.90;;;;;;4922496;29;20440;-87
2021/01/26 04:18:35;;;;;;;8.30;5.40;;;1.80;99.90;;;;;;4916140;29;20537;-86
2021/01/26 04:21:03;;;;;;;12.50;6.27;;;1.80;99.90;;;;;;4915083;29;20497;-83
2021/01/26 04:23:29;;;;;;;10.80;7.30;;;1.80;99.90;;;;;;4919501;29;20571;-87
2021/01/26 04:26:13;;;;;;;10.13;6.00;;;1.80;99.90;;;;;;4911790;29;20478;-85
2021/01/26 04:28:47;;;;;;;6.93;5.37;;;1.90;99.90;;;;;;4919467;29;20434;-84
2021/01/26 04:31:14;;;;;;;8.50;5.70;;;1.90;99.90;;;;;;4918247;29;20492;-85
2021/01/26 04:33:42;;;;;;;8.30;5.40;;;2.00;99.90;;;;;;4919871;29;20523;-87
2021/01/26 04:36:09;;;;;;;24.20;6.90;;;1.90;99.90;;;;;;4906011;29;20823;-86
2021/01/26 04:38:34;;;;;;;10.43;6.63;;;1.90;99.90;;;;;;4920423;29;20460;-84
2021/01/26 04:41:20;;;;;;;9.63;5.30;;;2.00;99.90;;;;;;4920375;29;20936;-85
2021/01/26 04:43:51;;;;;;;15.50;7.30;;;2.00;99.90;;;;;;4915237;29;20208;-86
2021/01/26 04:46:31;;;;;;;9.50;6.10;;;1.90;99.90;;;;;;4924348;29;20495;-84
2021/01/26 04:48:57;;;;;;;6.47;4.20;;;2.00;99.90;;;;;;4927136;29;20488;-84
2021/01/26 04:51:33;;;;;;;7.37;5.17;;;2.00;99.90;;;;;;4917687;29;20442;-85
2021/01/26 04:54:13;;;;;;;9.30;6.47;;;2.00;99.90;;;;;;4917814;29;20212;-84
2021/01/26 04:57:03;;;;;;;11.33;6.20;;;2.00;99.90;;;;;;4915978;29;20490;-87
2021/01/26 04:59:47;;;;;;;6.57;4.67;;;2.00;99.90;;;;;;4917941;29;20530;-84
2021/01/26 05:02:37;;;;;;;7.57;5.60;;;1.90;99.90;;;;;;4914670;29;20514;-87
2021/01/26 05:05:11;;;;;;;10.60;6.00;;;2.00;99.90;;;;;;4922156;29;20470;-85
2021/01/26 05:07:44;;;;;;;11.67;5.77;;;1.90;99.90;;;;;;4912257;29;20750;-85
2021/01/26 05:10:22;;;;;;;6.80;4.77;;;2.00;99.90;;;;;;4918732;29;20439;-84
2021/01/26 05:13:13;;;;;;;6.47;4.90;;;2.00;99.90;;;;;;4929179;29;20995;-86
2021/01/26 05:15:43;;;;;;;4.00;3.40;;;2.00;99.90;;;;;;4914143;29;20444;-87
2021/01/26 05:18:29;;;;;;;8.80;4.87;;;2.00;99.90;;;;;;4904394;29;20438;-84
2021/01/26 05:21:02;;;;;;;6.10;4.70;;;2.00;99.90;;;;;;4915296;29;20864;-87
2021/01/26 05:23:33;;;;;;;6.30;4.93;;;2.00;99.90;;;;;;4919828;29;20456;-85
2021/01/26 05:25:59;;;;;;;7.10;4.80;;;2.00;99.90;;;;;;4915668;29;20474;-88
2021/01/26 05:28:25;;;;;;;10.40;5.13;;;2.00;99.90;;;;;;4911652;29;20847;-87
2021/01/26 05:30:56;;;;;;;8.13;5.10;;;2.00;99.90;;;;;;4914774;29;20435;-87
2021/01/26 05:33:23;;;;;;;9.40;5.77;;;2.00;99.90;;;;;;4917278;29;20208;-83
2021/01/26 05:35:54;;;;;;;10.90;5.17;;;2.10;99.90;;;;;;4913635;29;20443;-84
2021/01/26 05:38:21;;;;;;;7.90;4.93;;;2.10;99.90;;;;;;4913892;29;20432;-86
2021/01/26 05:40:59;;;;;;;3.80;3.37;;;2.10;99.90;;;;;;4917471;29;20979;-84
2021/01/26 05:43:30;;;;;;;12.63;4.60;;;2.10;99.90;;;;;;4913121;29;20482;-86
2021/01/26 05:45:59;;;;;;;9.30;5.20;;;2.10;99.90;;;;;;4931951;29;20503;-85
2021/01/26 05:48:26;;;;;;;9.30;4.90;;;2.10;99.90;;;;;;4914083;29;20433;-85
2021/01/26 05:51:12;;;;;;;8.67;3.67;;;2.20;99.90;;;;;;4916008;29;20441;-86
2021/01/26 05:53:38;;;;;;;7.77;4.93;;;2.10;99.90;;;;;;4913608;29;20824;-84
2021/01/26 05:56:16;;;;;;;5.90;4.10;;;2.10;99.90;;;;;;4923168;29;20474;-87
2021/01/26 05:58:44;;;;;;;6.33;3.63;;;2.10;99.90;;;;;;4931775;29;20429;-86
2021/01/26 06:01:12;;;;;;;7.47;5.20;;;2.20;99.90;;;;;;4929572;29;20449;-88
2021/01/26 06:03:38;;;;;;;10.10;4.73;;;2.20;99.90;;;;;;4930461;29;20470;-89
2021/01/26 06:06:07;;;;;;;4.50;3.80;;;2.20;99.90;;;;;;4930603;29;20526;-87
2021/01/26 06:08:48;;;;;;;5.40;4.43;;;2.20;99.90;;;;;;4933803;29;20459;-86
2021/01/26 06:11:16;;;;;;;10.23;4.80;;;2.20;99.90;;;;;;4928012;29;20446;-88
2021/01/26 06:13:42;;;;;;;6.43;4.17;;;2.20;99.90;;;;;;4916353;29;20447;-84
2021/01/26 06:16:13;;;;;;;12.80;5.23;;;2.20;99.90;;;;;;4930560;29;20451;-86
2021/01/26 06:18:54;;;;;;;5.70;4.40;;;2.20;99.90;;;;;;4929285;29;20204;-84
2021/01/26 06:21:22;;;;;;;8.50;5.80;;;2.30;99.90;;;;;;4931234;29;20544;-84
2021/01/26 06:23:48;;;;;;;8.70;4.63;;;2.30;99.90;;;;;;4922507;29;20458;-88
2021/01/26 06:26:14;;;;;;;8.13;4.00;;;2.30;99.90;;;;;;4918405;29;20533;-87
2021/01/26 06:28:39;;;;;;;7.63;4.50;;;2.30;99.90;;;;;;4923495;29;20200;-84
2021/01/26 06:31:20;;;;;;;8.53;5.07;;;2.30;99.90;;;;;;4919512;29;20186;-87
2021/01/26 06:33:56;;;;;;;4.73;3.93;;;2.30;99.90;;;;;;4913786;29;20286;-87
2021/01/26 06:36:47;;;;;;;7.73;4.97;;;2.30;99.90;;;;;;4941855;29;20456;-85
2021/01/26 06:39:43;;;;;;;8.30;3.80;;;2.30;99.90;;;;;;4931230;29;20455;-88
2021/01/26 06:42:26;;;;;;;5.80;4.23;;;2.30;99.90;;;;;;4934613;29;20421;-86
2021/01/26 06:45:12;;;;;;;12.40;4.80;;;2.30;99.90;;;;;;4945885;29;20527;-85
2021/01/26 06:47:50;;;;;;;7.60;4.90;;;2.30;99.90;;;;;;4941765;29;20454;-86
2021/01/26 06:50:25;;;;;;;7.33;4.30;;;2.30;99.90;;;;;;4921574;28;20476;-87
2021/01/26 06:53:09;;;;;;;6.90;4.40;;;2.30;99.90;;;;;;4933437;28;20517;-89
2021/01/26 06:55:52;;;;;;;7.00;5.00;;;2.30;99.90;;;;;;4932404;29;20436;-86
2021/01/26 06:58:40;;;;;;;7.00;4.87;;;2.30;99.90;;;;;;4935309;29;20438;-89
2021/01/26 07:01:32;;;;;;;5.57;4.63;;;2.40;99.90;;;;;;4924420;29;20724;-86
2021/01/26 07:04:16;;;;;;;7.67;4.33;;;2.40;99.90;;;;;;4928893;29;20969;-86
2021/01/26 07:07:19;;;;;;;9.50;4.93;;;2.40;99.90;;;;;;4926943;29;20556;-87
2021/01/26 07:09:48;;;;;;;9.83;4.10;;;2.50;99.90;;;;;;4932876;29;20503;-88
2021/01/26 07:12:37;;;;;;;6.77;3.80;;;2.50;99.90;;;;;;4929981;29;20470;-86
2021/01/26 07:15:31;;;;;;;6.00;4.80;;;2.50;99.90;;;;;;4915539;29;20486;-87
2021/01/26 07:18:42;;;;;;;8.93;3.93;;;2.50;99.90;;;;;;4917730;29;20567;-86
2021/01/26 07:21:26;;;;;;;7.73;4.13;;;2.50;99.90;;;;;;4897755;29;20459;-88
2021/01/26 07:24:13;;;;;;;4.53;2.87;;;2.50;99.90;;;;;;4925225;29;20471;-88
2021/01/26 07:26:54;;;;;;;13.47;5.10;;;2.50;99.90;;;;;;4918993;29;20541;-87
2021/01/26 07:29:36;;;;;;;7.87;3.87;;;2.50;99.90;;;;;;4925819;29;20441;-86
2021/01/26 07:32:26;;;;;;;5.63;4.20;;;2.50;99.90;;;;;;4912732;29;20463;-88
2021/01/26 07:34:58;;;;;;;10.87;5.00;;;2.50;99.90;;;;;;4919637;29;20813;-88
2021/01/26 07:37:34;;;;;;;8.80;4.60;;;2.50;99.90;;;;;;4914186;29;20459;-87
2021/01/26 07:40:25;;;;;;;6.50;4.87;;;2.50;99.90;;;;;;4920575;29;20703;-88
2021/01/26 07:42:59;;;;;;;8.07;4.30;;;2.60;99.90;;;;;;4920924;29;20465;-87
2021/01/26 07:45:47;;;;;;;8.90;5.03;;;2.60;99.90;;;;;;4922336;29;20503;-87
2021/01/26 07:48:42;;;;;;;7.10;4.33;;;2.60;99.90;;;;;;4920879;29;20481;-88
2021/01/26 07:51:16;;;;;;;10.60;5.37;;;2.60;99.90;;;;;;4889770;29;20448;-87
2021/01/26 07:53:50;;;;;;;9.13;4.13;;;2.60;99.90;;;;;;4917512;29;20448;-86
2021/01/26 07:56:48;;;;;;;8.37;3.87;;;2.60;99.90;;;;;;4911980;29;20447;-87
2021/01/26 07:59:24;;;;;;;9.30;4.30;;;2.60;99.90;;;;;;4900960;29;20445;-88
2021/01/26 08:01:53;;;;;;;14.70;4.37;;;2.60;99.90;;;;;;4918094;29;20590;-88
2021/01/26 08:04:19;;;;;;;7.20;4.40;;;2.50;99.90;;;;;;4918124;29;20513;-88
2021/01/26 08:06:49;;;;;;;7.87;4.30;;;2.50;99.90;;;;;;4931894;29;20473;-89
2021/01/26 08:09:26;;;;;;;4.30;3.03;;;2.60;99.90;;;;;;4918068;29;21053;-85
2021/01/26 08:12:02;;;;;;;4.27;3.23;;;2.60;99.90;;;;;;4903865;29;20445;-87
2021/01/26 08:14:45;;;;;;;6.27;4.30;;;2.60;99.90;;;;;;4902031;29;20458;-87
2021/01/26 08:17:15;;;;;;;6.30;3.87;;;2.60;99.90;;;;;;4922732;29;20491;-87
2021/01/26 08:19:48;;;;;;;13.60;4.20;;;2.60;99.90;;;;;;4935632;28;20790;-85
2021/01/26 08:22:42;;;;;;;7.27;4.30;;;2.60;99.90;;;;;;4919537;29;20829;-86
2021/01/26 08:25:32;;;;;;;4.77;3.83;;;2.70;99.90;;;;;;4918904;29;20468;-87
2021/01/26 08:28:07;;;;;;;9.30;4.50;;;2.70;99.90;;;;;;4910902;29;20477;-87
2021/01/26 08:30:48;;;;;;;3.30;3.00;;;2.70;99.90;;;;;;4922126;29;20443;-90
2021/01/26 08:33:34;;;;;;;6.23;4.53;;;2.70;99.90;;;;;;4917965;29;20483;-90
2021/01/26 08:36:24;;;;;;;5.93;3.33;;;2.70;99.90;;;;;;4917007;29;20455;-87
2021/01/26 08:38:59;;;;;;;6.73;5.17;;;2.70;99.90;;;;;;4928667;29;20466;-87
2021/01/26 08:41:47;;;;;;;7.50;4.17;;;2.70;99.90;;;;;;4917708;29;20423;-85
2021/01/26 08:44:18;;;;;;;7.90;5.30;;;2.80;99.90;;;;;;4923612;29;20440;-88
2021/01/26 08:46:46;;;;;;;11.67;5.10;;;2.80;99.90;;;;;;4934007;29;20490;-86
2021/01/26 08:49:35;;;;;;;13.03;4.50;;;2.80;99.90;;;;;;4921563;29;20444;-86
2021/01/26 08:52:19;;;;;;;9.60;4.60;;;2.80;99.90;;;;;;4904241;29;20440;-87
2021/01/26 08:54:50;;;;;;;6.37;3.90;;;2.80;99.90;;;;;;4920301;29;20452;-87
2021/01/26 08:57:40;;;;;;;7.50;4.87;;;2.80;99.90;;;;;;4922207;29;20449;-86
2021/01/26 09:00:25;;;;;;;6.50;4.27;;;2.90;99.90;;;;;;4930168;29;20490;-85
2021/01/26 09:02:54;;;;;;;4.50;3.73;;;2.90;99.90;;;;;;4919900;29;20476;-87
2021/01/26 09:05:35;;;;;;;4.83;3.27;;;2.90;99.90;;;;;;4916448;29;20535;-85
2021/01/26 09:08:08;;;;;;;7.30;6.47;;;2.90;99.90;;;;;;4916888;29;20511;-85
2021/01/26 09:10:47;;;;;;;4.73;4.23;;;2.90;99.90;;;;;;4899123;29;20661;-87
2021/01/26 09:13:21;;;;;;;10.70;4.50;;;3.00;99.90;;;;;;4919239;29;20462;-85
2021/01/26 09:16:03;;;;;;;7.80;5.17;;;3.00;99.90;;;;;;4926550;29;20474;-87
2021/01/26 09:18:30;;;;;;;8.43;5.00;;;3.20;99.90;;;;;;4914784;29;20433;-85
2021/01/26 09:21:06;;;;;;;8.03;5.63;;;3.20;99.90;;;;;;4918313;29;20415;-86
2021/01/26 09:23:33;;;;;;;5.03;4.30;;;3.20;99.90;;;;;;4911193;29;20551;-83
2021/01/26 09:25:59;;;;;;;6.83;4.23;;;3.30;99.90;;;;;;4915673;29;20823;-84
2021/01/26 09:28:27;;;;;;;6.40;4.20;;;3.40;99.90;;;;;;4922315;29;20451;-84
2021/01/26 09:30:59;;;;;;;3.97;3.50;;;3.30;99.90;;;;;;4917641;29;20470;-87
2021/01/26 09:33:29;;;;;;;5.87;4.73;;;3.30;99.90;;;;;;4919937;29;20448;-88
2021/01/26 09:36:04;;;;;;;6.70;4.73;;;3.20;99.90;;;;;;4910586;29;20435;-87
2021/01/26 09:38:37;;;;;;;7.50;4.73;;;3.20;99.90;;;;;;4928813;29;20485;-87
2021/01/26 09:41:05;;;;;;;7.87;4.97;;;3.20;99.90;;;;;;4928782;29;20539;-89
2021/01/26 09:43:35;;;;;;;12.60;4.57;;;3.10;99.90;;;;;;4931620;29;20815;-86
2021/01/26 09:46:07;;;;;;;9.83;5.30;;;3.10;99.90;;;;;;4919181;29;20472;-86
2021/01/26 09:48:39;;;;;;;6.67;5.10;;;3.20;99.90;;;;;;4902323;29;20479;-83
2021/01/26 09:51:18;;;;;;;5.63;4.20;;;3.40;99.90;;;;;;4915127;29;20538;-85
2021/01/26 09:53:47;;;;;;;6.40;3.77;;;3.60;99.90;;;;;;4919331;29;20480;-82
2021/01/26 09:56:17;;;;;;;10.20;5.90;;;3.70;99.90;;;;;;4919021;29;20886;-85
2021/01/26 09:58:47;;;;;;;4.23;3.43;;;3.50;99.90;;;;;;4895159;29;21001;-84
2021/01/26 10:01:14;;;;;;;6.90;5.90;;;3.50;99.90;;;;;;4920401;29;20427;-85
2021/01/26 10:03:45;;;;;;;4.63;3.50;;;3.40;99.90;;;;;;4915951;29;20536;-84
2021/01/26 10:06:12;;;;;;;8.60;3.40;;;3.40;99.90;;;;;;4922631;29;20468;-84
2021/01/26 10:08:39;;;;;;;5.80;4.33;;;3.50;99.90;;;;;;4932697;29;20439;-84
2021/01/26 10:11:09;;;;;;;5.80;4.17;;;3.50;99.90;;;;;;4921548;29;20956;-87
2021/01/26 10:13:40;;;;;;;7.07;5.20;;;3.60;99.90;;;;;;4928257;28;20460;-84
2021/01/26 10:16:28;;;;;;;6.47;5.30;;;3.70;99.90;;;;;;4913560;29;20453;-85
2021/01/26 10:18:54;;;;;;;6.40;5.40;;;3.70;99.90;;;;;;4916485;29;20436;-85
2021/01/26 10:21:33;;;;;;;6.53;4.80;;;3.70;99.90;;;;;;4907833;29;20450;-85
2021/01/26 10:24:11;;;;;;;6.30;5.13;;;3.80;99.90;;;;;;4912547;29;20463;-84
2021/01/26 10:26:45;;;;;;;6.23;4.43;;;3.80;99.90;;;;;;4925882;29;20479;-85
2021/01/26 10:29:17;;;;;;;8.63;4.80;;;3.80;99.90;;;;;;4912706;29;20444;-87
2021/01/26 10:32:01;;;;;;;6.00;4.87;;;3.70;99.90;;;;;;4926203;29;20566;-86
2021/01/26 10:34:38;;;;;;;8.43;5.50;;;3.90;99.90;;;;;;4919657;29;20472;-87
2021/01/26 10:37:21;;;;;;;12.63;4.43;;;4.20;99.90;;;;;;4917762;29;20473;-86
2021/01/26 10:40:08;;;;;;;9.63;5.70;;;4.60;99.90;;;;;;4917307;29;20993;-86
2021/01/26 10:42:34;;;;;;;6.70;3.70;;;5.00;99.90;;;;;;4929485;29;20448;-85
2021/01/26 10:45:00;;;;;;;10.10;5.03;;;4.80;99.90;;;;;;4910389;29;20478;-85
2021/01/26 10:47:37;;;;;;;7.00;4.73;;;4.70;99.90;;;;;;4922907;29;20420;-84
2021/01/26 10:50:26;;;;;;;4.50;3.53;;;4.60;99.90;;;;;;4908266;29;20436;-87
2021/01/26 10:52:53;;;;;;;8.73;4.37;;;4.60;99.90;;;;;;4920777;29;20455;-85
2021/01/26 10:56:23;;;;;;;6.13;4.90;;;4.70;99.90;;;;;;4916518;29;20436;-87
2021/01/26 10:58:59;;;;;;;10.77;5.20;;;4.80;99.90;;;;;;4900205;29;20440;-86
2021/01/26 11:01:25;;;;;;;4.90;4.17;;;4.90;99.90;;;;;;4905675;29;20964;-83
2021/01/26 11:03:59;;;;;;;10.93;6.37;;;4.90;99.90;;;;;;4895875;29;20523;-88
2021/01/26 11:06:26;;;;;;;7.17;4.97;;;4.90;99.90;;;;;;4924131;29;20478;-84
2021/01/26 11:09:26;;;;;;;8.37;4.97;;;5.00;99.90;;;;;;4914411;29;20437;-83
2021/01/26 11:14:59;;;;;;;8.57;5.60;;;4.60;99.90;;;;;;4920443;29;21014;-85
2021/01/26 11:17:25;;;;;;;7.60;5.30;;;4.70;99.90;;;;;;4915083;29;20435;-87
2021/01/26 11:19:54;;;;;;;13.53;4.90;;;4.80;99.90;;;;;;4918318;29;20429;-86
2021/01/26 11:22:20;;;;;;;7.80;6.23;;;4.90;99.90;;;;;;4918631;29;20267;-86
2021/01/26 11:24:46;;;;;;;5.07;3.20;;;5.10;99.90;;;;;;4919185;29;20846;-86
2021/01/26 11:27:11;;;;;;;13.83;4.27;;;5.30;99.90;;;;;;4914933;29;20794;-85
2021/01/26 11:29:37;;;;;;;4.83;3.83;;;5.20;99.90;;;;;;4916724;29;20200;-88
2021/01/26 11:32:04;;;;;;;5.70;4.03;;;5.00;99.90;;;;;;4914870;29;20305;-87
2021/01/26 11:34:30;;;;;;;5.80;3.73;;;5.00;99.90;;;;;;4920426;29;20205;-83
2021/01/26 11:36:55;;;;;;;5.20;3.67;;;4.90;99.90;;;;;;4918309;29;20803;-84
2021/01/26 11:39:21;;;;;;;8.80;4.67;;;5.00;99.90;;;;;;4912076;29;20459;-85
2021/01/26 11:41:47;;;;;;;4.77;3.10;;;5.00;99.90;;;;;;4896678;29;20188;-82
2021/01/26 11:44:12;;;;;;;7.93;4.00;;;5.10;99.90;;;;;;4917685;29;20215;-87
2021/01/26 11:46:38;;;;;;;5.87;4.10;;;5.00;99.90;;;;;;4919600;29;20267;-85
2021/01/26 11:49:04;;;;;;;7.63;4.17;;;4.80;99.90;;;;;;4911080;29;20192;-85
2021/01/26 11:51:30;;;;;;;5.27;3.00;;;4.80;99.90;;;;;;4919631;29;20997;-84
2021/01/26 11:53:56;;;;;;;11.37;4.63;;;4.70;99.90;;;;;;4914564;29;20960;-86
2021/01/26 11:56:22;;;;;;;5.33;2.90;;;4.60;99.90;;;;;;4921004;29;20207;-86
2021/01/26 11:58:49;;;;;;;5.07;3.20;;;4.60;99.90;;;;;;4915424;29;20464;-87
2021/01/26 12:01:16;;;;;;;5.60;4.23;;;4.50;99.90;;;;;;4916720;29;20468;-86
2021/01/26 12:03:42;;;;;;;6.87;4.43;;;4.50;99.90;;;;;;4916382;29;20539;-84
2021/01/26 12:06:13;;;;;;;3.73;2.60;;;4.40;99.90;;;;;;4919210;29;21036;-85
2021/01/26 12:08:39;;;;;;;9.50;3.93;;;4.40;99.90;;;;;;4915473;29;20416;-85
2021/01/26 12:11:06;;;;;;;9.23;4.07;;;4.30;99.90;;;;;;4906432;29;21021;-86
2021/01/26 12:13:32;;;;;;;7.40;4.73;;;4.30;99.90;;;;;;4910727;29;20280;-85
2021/01/26 12:15:58;;;;;;;3.83;3.00;;;4.30;99.90;;;;;;4918970;29;20504;-85
2021/01/26 12:18:23;;;;;;;6.07;4.17;;;4.40;99.90;;;;;;4920983;29;20479;-87
2021/01/26 12:20:49;;;;;;;9.30;4.30;;;4.40;99.90;;;;;;4918274;29;20184;-87
2021/01/26 12:23:15;;;;;;;5.17;3.60;;;4.50;99.90;;;;;;4900475;29;20222;-86
2021/01/26 12:25:41;;;;;;;6.93;4.43;;;4.50;99.90;;;;;;4915037;29;20220;-88
2021/01/26 12:28:08;;;;;;;6.53;4.80;;;4.60;99.90;;;;;;4924759;29;20666;-87
2021/01/26 12:30:34;;;;;;;8.90;4.13;;;4.80;99.90;;;;;;4916980;29;20283;-86
2021/01/26 12:33:02;;;;;;;5.40;4.80;;;5.00;99.90;;;;;;4919550;29;21051;-84
2021/01/26 12:35:34;;;;;;;3.93;3.00;;;4.80;99.90;;;;;;4913678;29;20432;-87
2021/01/26 12:38:01;;;;;;;5.60;3.60;;;4.80;99.90;;;;;;4922519;29;20444;-87
2021/01/26 12:40:27;;;;;;;6.63;4.40;;;4.80;99.90;;;;;;4916146;29;20429;-85
2021/01/26 12:42:52;;;;;;;7.47;4.30;;;4.80;99.90;;;;;;4915787;29;20436;-86
2021/01/26 12:45:21;;;;;;;9.53;4.63;;;4.90;99.90;;;;;;4913761;29;20983;-85
2021/01/26 12:47:47;;;;;;;6.43;4.80;;;5.00;99.90;;;;;;4930802;29;20176;-83
2021/01/26 12:50:19;;;;;;;4.90;3.37;;;5.20;99.90;;;;;;4925236;29;20427;-86
2021/01/26 12:52:44;;;;;;;11.10;4.47;;;5.20;99.90;;;;;;4919829;29;20459;-84
2021/01/26 12:55:10;;;;;;;9.13;4.33;;;5.10;99.90;;;;;;4921911;29;20432;-86
2021/01/26 12:57:36;;;;;;;5.40;4.13;;;5.00;99.90;;;;;;4919554;29;20188;-86
2021/01/26 13:00:05;;;;;;;8.37;4.00;;;4.90;99.90;;;;;;4924701;29;20431;-86
2021/01/26 13:02:31;;;;;;;5.20;3.50;;;4.80;99.90;;;;;;4915484;29;20196;-86
2021/01/26 13:04:57;;;;;;;3.97;2.87;;;4.70;99.90;;;;;;4924068;29;20464;-85
2021/01/26 13:07:23;;;;;;;12.73;3.63;;;4.60;99.90;;;;;;4921475;29;20199;-87
2021/01/26 13:09:49;;;;;;;9.23;4.80;;;4.60;99.90;;;;;;4918823;29;20224;-84
2021/01/26 13:12:15;;;;;;;5.97;3.93;;;4.60;99.90;;;;;;4920801;29;20431;-84
2021/01/26 13:14:41;;;;;;;6.43;4.13;;;4.70;99.90;;;;;;4920069;29;20445;-85
2021/01/26 13:17:07;;;;;;;10.20;4.20;;;4.70;99.90;;;;;;4920906;29;20256;-86
2021/01/26 13:19:33;;;;;;;5.83;3.43;;;4.70;99.90;;;;;;4920640;29;20487;-85
2021/01/26 13:21:58;;;;;;;3.47;2.70;;;4.80;99.90;;;;;;4924847;29;20209;-86
2021/01/26 13:24:24;;;;;;;4.17;3.30;;;4.80;99.90;;;;;;4916145;29;20208;-86
2021/01/26 13:26:50;;;;;;;6.13;3.40;;;4.90;99.90;;;;;;4917956;29;20224;-88